createdAt,value
2022-11-04T06:49:37.633Z,7.70
2022-11-04T06:52:42.304Z,7.90
2022-11-04T06:55:45.860Z,8.20
2022-11-04T06:58:49.149Z,8.40
2022-11-04T07:01:52.186Z,8.60
2022-11-04T07:04:54.396Z,8.80
2022-11-04T07:07:56.654Z,8.80
2022-11-04T07:10:58.378Z,8.80
2022-11-04T07:14:00.072Z,8.70
2022-11-04T07:17:02.149Z,8.70
2022-11-04T07:20:05.587Z,8.60
2022-11-04T07:23:07.311Z,8.60
2022-11-04T07:26:11.889Z,8.70
2022-11-04T07:29:13.903Z,8.80
2022-11-04T07:32:15.671Z,8.90
2022-11-04T07:35:17.433Z,9.00
2022-11-04T07:38:20.115Z,9.20
2022-11-04T07:41:22.390Z,9.40
2022-11-04T07:44:24.117Z,9.50
2022-11-04T07:47:25.886Z,9.50
2022-11-04T07:50:27.676Z,9.60
2022-11-04T07:53:30.785Z,9.60
2022-11-04T07:56:32.598Z,9.70
2022-11-04T07:59:34.275Z,9.80
2022-11-04T08:02:36.570Z,9.90
2022-11-04T08:05:38.855Z,9.90
2022-11-04T08:08:42.201Z,10.10
2022-11-04T08:11:43.928Z,10.30
2022-11-04T08:14:45.579Z,10.30
2022-11-04T08:17:47.482Z,10.50
2022-11-04T08:20:50.780Z,10.60
2022-11-04T08:23:52.899Z,10.60
2022-11-04T08:26:54.608Z,10.80
2022-11-04T08:29:56.342Z,10.80
2022-11-04T08:32:58.229Z,10.70
2022-11-04T08:36:05.104Z,10.90
2022-11-04T08:39:10.886Z,10.80
2022-11-04T08:42:13.140Z,10.90
2022-11-04T08:45:15.050Z,10.80
2022-11-04T08:48:16.714Z,10.80
2022-11-04T08:51:22.120Z,11.10
2022-11-04T08:54:24.889Z,11.20
2022-11-04T08:57:26.694Z,11.30
2022-11-04T09:00:33.059Z,11.50
2022-11-04T09:03:38.477Z,11.50
2022-11-04T09:06:43.436Z,11.30
2022-11-04T09:09:45.093Z,11.40
2022-11-04T09:12:46.778Z,11.60
2022-11-04T09:15:49.119Z,11.90
2022-11-04T09:18:50.983Z,11.90
2022-11-04T09:21:52.813Z,11.80
2022-11-04T09:24:54.487Z,11.80
2022-11-04T09:27:56.160Z,11.80
2022-11-04T09:30:57.847Z,11.80
2022-11-04T09:33:59.605Z,11.80
2022-11-04T09:37:01.432Z,11.50
2022-11-04T09:40:03.827Z,11.50
2022-11-04T09:43:25.642Z,11.30
2022-11-04T09:46:30.984Z,11.40
2022-11-04T09:49:37.070Z,11.40
2022-11-04T09:52:44.726Z,11.70
2022-11-04T09:56:00.083Z,11.60
2022-11-04T09:59:04.123Z,11.50
2022-11-04T10:02:26.894Z,11.60
2022-11-04T10:05:54.448Z,11.90
2022-11-04T10:09:22.931Z,12.10
2022-11-04T10:12:51.066Z,12.40
2022-11-04T10:16:20.159Z,12.50
2022-11-04T10:19:37.130Z,12.80
2022-11-04T10:23:02.057Z,14.00
2022-11-04T10:26:28.973Z,14.50
2022-11-04T10:29:45.618Z,14.70
2022-11-04T10:33:27.883Z,14.40
2022-11-04T10:36:30.335Z,14.40
2022-11-04T10:39:37.401Z,14.60
2022-11-04T10:42:39.042Z,14.70
2022-11-04T10:45:50.512Z,14.40
2022-11-04T10:49:00.740Z,14.10
2022-11-04T10:52:02.776Z,14.10
2022-11-04T10:55:15.854Z,13.90
2022-11-04T10:58:23.970Z,14.40
2022-11-04T11:01:31.862Z,14.40
2022-11-04T11:04:37.039Z,14.10
2022-11-04T11:07:38.990Z,14.10
2022-11-04T11:10:52.016Z,13.80
2022-11-04T11:13:53.692Z,13.70
2022-11-04T11:16:57.063Z,13.70
2022-11-04T11:20:02.822Z,13.40
2022-11-04T11:23:09.626Z,13.40
2022-11-04T11:26:19.233Z,13.20
2022-11-04T11:29:42.214Z,13.00
2022-11-04T11:32:44.676Z,13.10
2022-11-04T11:35:53.148Z,13.10
2022-11-04T11:39:03.453Z,13.10
2022-11-04T11:42:11.672Z,13.00
2022-11-04T11:45:17.012Z,13.00
2022-11-04T11:48:44.262Z,13.00
2022-11-04T11:51:45.920Z,12.70
2022-11-04T11:54:50.743Z,12.70
2022-11-04T12:02:22.671Z,12.30
2022-11-04T12:12:42.909Z,12.80
2022-11-04T12:16:21.123Z,12.80
2022-11-04T12:19:54.698Z,12.70
2022-11-04T12:23:24.733Z,12.80
2022-11-04T12:27:07.722Z,12.60
2022-11-04T12:30:17.022Z,12.70
2022-11-04T12:33:32.475Z,12.50
2022-11-04T12:37:00.564Z,12.80
2022-11-04T12:40:25.509Z,12.90
2022-11-04T12:43:41.186Z,12.90
2022-11-04T12:47:09.946Z,13.10
2022-11-04T12:50:38.750Z,13.30
2022-11-04T12:54:08.746Z,13.10
2022-11-04T12:57:26.719Z,13.20
2022-11-04T13:00:31.171Z,13.40
2022-11-04T13:03:42.013Z,13.50
2022-11-04T13:06:48.985Z,13.60
2022-11-04T13:09:58.618Z,13.00
2022-11-04T13:13:03.100Z,12.60
2022-11-04T13:16:11.252Z,12.30
2022-11-04T13:19:26.270Z,11.80
2022-11-04T13:22:33.038Z,11.70
2022-11-04T13:25:40.593Z,11.50
2022-11-04T13:28:44.277Z,11.40
2022-11-04T13:32:00.223Z,11.40
2022-11-04T13:35:19.248Z,11.60
2022-11-04T13:38:31.790Z,11.50
2022-11-04T13:41:55.703Z,11.50
2022-11-04T13:45:03.787Z,11.50
2022-11-04T13:48:11.658Z,11.40
2022-11-04T13:51:13.770Z,11.30
2022-11-04T13:54:34.474Z,11.20
2022-11-04T13:58:00.443Z,11.20
2022-11-04T14:01:10.480Z,11.30
2022-11-04T14:04:13.195Z,11.30
2022-11-04T14:07:18.091Z,11.30
2022-11-04T14:10:43.703Z,11.10
2022-11-04T14:13:47.764Z,10.50
2022-11-04T14:16:49.728Z,9.90
2022-11-04T14:19:55.992Z,9.80
2022-11-04T14:23:00.321Z,9.60
2022-11-04T14:26:07.710Z,9.50
2022-11-04T14:29:28.114Z,9.40
2022-11-04T14:32:36.133Z,9.40
2022-11-04T14:35:37.935Z,9.30
2022-11-04T14:38:40.924Z,9.40
2022-11-04T14:42:03.655Z,9.40
2022-11-04T14:45:12.137Z,9.30
2022-11-04T14:48:19.323Z,9.20
2022-11-04T14:51:28.178Z,9.30
2022-11-04T14:54:34.055Z,9.50
2022-11-04T14:57:39.589Z,9.60
2022-11-04T15:00:48.586Z,9.80
2022-11-04T15:07:25.151Z,9.70
2022-11-04T15:10:28.476Z,9.70
2022-11-04T15:13:35.564Z,9.60
2022-11-04T15:16:37.439Z,9.40
2022-11-04T15:19:39.382Z,9.40
2022-11-04T15:22:43.430Z,9.40
2022-11-04T15:25:48.512Z,9.50
2022-11-04T15:28:51.490Z,9.60
2022-11-04T15:32:04.935Z,9.70
2022-11-04T15:35:13.103Z,9.80
2022-11-04T15:38:15.286Z,9.80
2022-11-04T15:41:40.381Z,9.80
2022-11-04T15:44:47.757Z,9.80
2022-11-04T15:47:51.046Z,9.80
2022-11-04T15:51:17.608Z,9.80
2022-11-04T15:54:26.586Z,9.90
2022-11-04T15:57:32.572Z,10.00
2022-11-04T16:00:34.870Z,10.00
2022-11-04T16:03:36.707Z,9.90
2022-11-04T16:06:42.719Z,9.80
2022-11-04T16:09:48.954Z,9.90
2022-11-04T16:12:55.820Z,10.00
2022-11-04T16:15:58.551Z,10.00
2022-11-04T16:19:00.739Z,9.90
2022-11-04T16:22:06.516Z,9.80
2022-11-04T16:25:19.860Z,9.80
2022-11-04T16:28:22.501Z,9.90
2022-11-04T16:31:28.685Z,10.00
2022-11-04T16:34:30.411Z,10.10
2022-11-04T16:37:32.645Z,10.20
2022-11-04T16:40:34.649Z,10.10
2022-11-04T16:43:41.483Z,10.00
2022-11-04T16:46:45.418Z,9.80
2022-11-04T16:49:47.311Z,9.80
2022-11-04T16:52:49.012Z,9.80
2022-11-04T16:55:51.500Z,9.50
2022-11-04T16:58:53.504Z,9.30
